sensor_id;sensor_type;location;lat;lon;timestamp;P1;durP1;ratioP1;P2;durP2;ratioP2
14373;SDS011;7270;49.004;12.066;2023-08-30T00:00:03;1.20;;;1.20;;
14373;SDS011;7270;49.004;12.066;2023-08-30T00:02:30;1.23;;;1.20;;
14373;SDS011;7270;49.004;12.066;2023-08-30T00:04:58;1.20;;;1.20;;
14373;SDS011;7270;49.004;12.066;2023-08-30T00:07:24;1.40;;;1.30;;
14373;SDS011;7270;49.004;12.066;2023-08-30T00:09:52;1.30;;;1.20;;
14373;SDS011;7270;49.004;12.066;2023-08-30T00:12:18;1.20;;;1.20;;
14373;SDS011;7270;49.004;12.066;2023-08-30T00:14:44;1.13;;;1.13;;
14373;SDS011;7270;49.004;12.066;2023-08-30T00:17:11;1.20;;;1.20;;
14373;SDS011;7270;49.004;12.066;2023-08-30T00:19:37;1.27;;;1.20;;
14373;SDS011;7270;49.004;12.066;2023-08-30T00:22:04;1.30;;;1.20;;
14373;SDS011;7270;49.004;12.066;2023-08-30T00:24:32;1.30;;;1.20;;
14373;SDS011;7270;49.004;12.066;2023-08-30T00:27:00;1.20;;;1.20;;
14373;SDS011;7270;49.004;12.066;2023-08-30T00:29:26;1.30;;;1.20;;
14373;SDS011;7270;49.004;12.066;2023-08-30T00:31:53;1.30;;;1.20;;
14373;SDS011;7270;49.004;12.066;2023-08-30T00:34:19;1.10;;;1.10;;
14373;SDS011;7270;49.004;12.066;2023-08-30T00:36:45;1.20;;;1.20;;
14373;SDS011;7270;49.004;12.066;2023-08-30T00:39:12;1.40;;;1.30;;
14373;SDS011;7270;49.004;12.066;2023-08-30T00:41:38;1.20;;;1.20;;
14373;SDS011;7270;49.004;12.066;2023-08-30T00:44:06;1.20;;;1.20;;
14373;SDS011;7270;49.004;12.066;2023-08-30T00:46:33;1.10;;;1.10;;
14373;SDS011;7270;49.004;12.066;2023-08-30T00:48:59;1.10;;;1.10;;
14373;SDS011;7270;49.004;12.066;2023-08-30T00:51:24;1.10;;;1.10;;
14373;SDS011;7270;49.004;12.066;2023-08-30T00:53:51;1.20;;;1.20;;
14373;SDS011;7270;49.004;12.066;2023-08-30T00:56:17;1.10;;;1.10;;
14373;SDS011;7270;49.004;12.066;2023-08-30T00:58:44;1.10;;;1.10;;
14373;SDS011;7270;49.004;12.066;2023-08-30T01:01:12;1.10;;;1.10;;
14373;SDS011;7270;49.004;12.066;2023-08-30T01:03:39;1.10;;;1.10;;
14373;SDS011;7270;49.004;12.066;2023-08-30T01:06:05;1.10;;;1.10;;
14373;SDS011;7270;49.004;12.066;2023-08-30T01:08:32;1.20;;;1.20;;
14373;SDS011;7270;49.004;12.066;2023-08-30T01:10:59;1.10;;;1.10;;
14373;SDS011;7270;49.004;12.066;2023-08-30T01:13:28;1.20;;;1.20;;
14373;SDS011;7270;49.004;12.066;2023-08-30T01:15:56;1.10;;;1.10;;
14373;SDS011;7270;49.004;12.066;2023-08-30T01:18:25;1.17;;;1.17;;
14373;SDS011;7270;49.004;12.066;2023-08-30T01:20:52;1.30;;;1.20;;
14373;SDS011;7270;49.004;12.066;2023-08-30T01:23:23;1.30;;;1.20;;
14373;SDS011;7270;49.004;12.066;2023-08-30T01:25:52;1.40;;;1.30;;
14373;SDS011;7270;49.004;12.066;2023-08-30T01:28:23;1.20;;;1.20;;
14373;SDS011;7270;49.004;12.066;2023-08-30T01:30:50;1.23;;;1.23;;
14373;SDS011;7270;49.004;12.066;2023-08-30T01:33:19;1.00;;;1.00;;
14373;SDS011;7270;49.004;12.066;2023-08-30T01:35:46;1.10;;;1.10;;
14373;SDS011;7270;49.004;12.066;2023-08-30T01:38:13;1.30;;;1.20;;
14373;SDS011;7270;49.004;12.066;2023-08-30T01:40:41;1.10;;;1.10;;
14373;SDS011;7270;49.004;12.066;2023-08-30T01:43:08;1.30;;;1.20;;
14373;SDS011;7270;49.004;12.066;2023-08-30T01:45:38;1.20;;;1.20;;
14373;SDS011;7270;49.004;12.066;2023-08-30T01:48:05;1.10;;;1.10;;
14373;SDS011;7270;49.004;12.066;2023-08-30T01:50:33;1.20;;;1.20;;
14373;SDS011;7270;49.004;12.066;2023-08-30T01:53:00;1.10;;;1.10;;
14373;SDS011;7270;49.004;12.066;2023-08-30T01:55:27;1.30;;;1.20;;
14373;SDS011;7270;49.004;12.066;2023-08-30T01:57:54;1.20;;;1.20;;
14373;SDS011;7270;49.004;12.066;2023-08-30T02:00:20;1.10;;;1.10;;
14373;SDS011;7270;49.004;12.066;2023-08-30T02:02:48;1.27;;;1.20;;
14373;SDS011;7270;49.004;12.066;2023-08-30T02:05:15;1.00;;;1.00;;
14373;SDS011;7270;49.004;12.066;2023-08-30T02:07:43;1.10;;;1.10;;
14373;SDS011;7270;49.004;12.066;2023-08-30T02:10:12;1.10;;;1.10;;
14373;SDS011;7270;49.004;12.066;2023-08-30T02:12:42;1.20;;;1.20;;
14373;SDS011;7270;49.004;12.066;2023-08-30T02:15:10;1.20;;;1.20;;
14373;SDS011;7270;49.004;12.066;2023-08-30T02:17:36;1.10;;;1.10;;
14373;SDS011;7270;49.004;12.066;2023-08-30T02:20:06;1.20;;;1.20;;
14373;SDS011;7270;49.004;12.066;2023-08-30T02:22:32;1.30;;;1.20;;
14373;SDS011;7270;49.004;12.066;2023-08-30T02:24:59;1.30;;;1.20;;
14373;SDS011;7270;49.004;12.066;2023-08-30T02:27:26;1.30;;;1.20;;
14373;SDS011;7270;49.004;12.066;2023-08-30T02:29:52;1.10;;;1.10;;
14373;SDS011;7270;49.004;12.066;2023-08-30T02:32:19;1.20;;;1.20;;
14373;SDS011;7270;49.004;12.066;2023-08-30T02:34:47;1.10;;;1.10;;
14373;SDS011;7270;49.004;12.066;2023-08-30T02:37:15;1.10;;;1.10;;
14373;SDS011;7270;49.004;12.066;2023-08-30T02:39:41;1.10;;;1.10;;
14373;SDS011;7270;49.004;12.066;2023-08-30T02:42:08;1.10;;;1.10;;
14373;SDS011;7270;49.004;12.066;2023-08-30T02:44:34;1.10;;;1.10;;
14373;SDS011;7270;49.004;12.066;2023-08-30T02:47:00;1.10;;;1.10;;
14373;SDS011;7270;49.004;12.066;2023-08-30T02:49:27;1.20;;;1.20;;
14373;SDS011;7270;49.004;12.066;2023-08-30T02:51:53;1.30;;;1.20;;
14373;SDS011;7270;49.004;12.066;2023-08-30T02:54:21;1.40;;;1.30;;
14373;SDS011;7270;49.004;12.066;2023-08-30T02:56:48;1.30;;;1.20;;
14373;SDS011;7270;49.004;12.066;2023-08-30T02:59:14;1.13;;;1.13;;
14373;SDS011;7270;49.004;12.066;2023-08-30T03:01:41;1.40;;;1.30;;
14373;SDS011;7270;49.004;12.066;2023-08-30T03:04:07;1.20;;;1.20;;
14373;SDS011;7270;49.004;12.066;2023-08-30T03:06:34;1.10;;;1.10;;
14373;SDS011;7270;49.004;12.066;2023-08-30T03:09:00;1.20;;;1.20;;
14373;SDS011;7270;49.004;12.066;2023-08-30T03:11:28;1.10;;;1.10;;
14373;SDS011;7270;49.004;12.066;2023-08-30T03:13:55;1.10;;;1.10;;
14373;SDS011;7270;49.004;12.066;2023-08-30T03:16:21;1.13;;;1.13;;
14373;SDS011;7270;49.004;12.066;2023-08-30T03:18:48;1.10;;;1.10;;
14373;SDS011;7270;49.004;12.066;2023-08-30T03:21:14;1.27;;;1.20;;
14373;SDS011;7270;49.004;12.066;2023-08-30T03:23:41;1.30;;;1.20;;
14373;SDS011;7270;49.004;12.066;2023-08-30T03:26:07;1.30;;;1.20;;
14373;SDS011;7270;49.004;12.066;2023-08-30T03:28:35;1.10;;;1.10;;
14373;SDS011;7270;49.004;12.066;2023-08-30T03:31:01;1.20;;;1.20;;
14373;SDS011;7270;49.004;12.066;2023-08-30T03:33:28;1.10;;;1.10;;
14373;SDS011;7270;49.004;12.066;2023-08-30T03:35:57;1.40;;;1.30;;
14373;SDS011;7270;49.004;12.066;2023-08-30T03:38:24;1.10;;;1.10;;
14373;SDS011;7270;49.004;12.066;2023-08-30T03:40:52;1.30;;;1.20;;
14373;SDS011;7270;49.004;12.066;2023-08-30T03:43:18;1.10;;;1.10;;
14373;SDS011;7270;49.004;12.066;2023-08-30T03:45:48;1.10;;;1.10;;
14373;SDS011;7270;49.004;12.066;2023-08-30T03:48:14;1.00;;;1.00;;
14373;SDS011;7270;49.004;12.066;2023-08-30T03:50:40;1.17;;;1.17;;
14373;SDS011;7270;49.004;12.066;2023-08-30T03:53:07;1.10;;;1.10;;
14373;SDS011;7270;49.004;12.066;2023-08-30T03:55:33;1.10;;;1.10;;
14373;SDS011;7270;49.004;12.066;2023-08-30T03:58:00;1.07;;;1.07;;
14373;SDS011;7270;49.004;12.066;2023-08-30T04:00:26;1.30;;;1.20;;
14373;SDS011;7270;49.004;12.066;2023-08-30T04:02:54;1.10;;;1.10;;
14373;SDS011;7270;49.004;12.066;2023-08-30T04:05:20;1.10;;;1.10;;
14373;SDS011;7270;49.004;12.066;2023-08-30T04:07:46;1.10;;;1.10;;
14373;SDS011;7270;49.004;12.066;2023-08-30T04:10:13;1.10;;;1.10;;
14373;SDS011;7270;49.004;12.066;2023-08-30T04:12:39;1.03;;;1.03;;
14373;SDS011;7270;49.004;12.066;2023-08-30T04:15:06;1.10;;;1.10;;
14373;SDS011;7270;49.004;12.066;2023-08-30T04:17:32;0.93;;;0.93;;
14373;SDS011;7270;49.004;12.066;2023-08-30T04:20:00;1.10;;;1.10;;
14373;SDS011;7270;49.004;12.066;2023-08-30T04:22:26;1.40;;;1.30;;
14373;SDS011;7270;49.004;12.066;2023-08-30T04:24:52;1.30;;;1.20;;
14373;SDS011;7270;49.004;12.066;2023-08-30T04:27:19;1.20;;;1.20;;
14373;SDS011;7270;49.004;12.066;2023-08-30T04:29:45;1.30;;;1.20;;
14373;SDS011;7270;49.004;12.066;2023-08-30T04:32:12;1.10;;;1.10;;
14373;SDS011;7270;49.004;12.066;2023-08-30T04:34:39;1.20;;;1.20;;
14373;SDS011;7270;49.004;12.066;2023-08-30T04:37:06;1.27;;;1.20;;
14373;SDS011;7270;49.004;12.066;2023-08-30T04:39:33;1.10;;;1.10;;
14373;SDS011;7270;49.004;12.066;2023-08-30T04:41:59;1.10;;;1.10;;
14373;SDS011;7270;49.004;12.066;2023-08-30T04:44:27;1.00;;;1.00;;
14373;SDS011;7270;49.004;12.066;2023-08-30T04:46:54;1.20;;;1.20;;
14373;SDS011;7270;49.004;12.066;2023-08-30T04:49:20;1.10;;;1.10;;
14373;SDS011;7270;49.004;12.066;2023-08-30T04:51:47;1.20;;;1.20;;
14373;SDS011;7270;49.004;12.066;2023-08-30T04:54:14;1.20;;;1.20;;
14373;SDS011;7270;49.004;12.066;2023-08-30T04:56:41;1.40;;;1.30;;
14373;SDS011;7270;49.004;12.066;2023-08-30T04:59:08;1.30;;;1.20;;
14373;SDS011;7270;49.004;12.066;2023-08-30T05:01:34;1.23;;;1.20;;
14373;SDS011;7270;49.004;12.066;2023-08-30T05:04:00;1.20;;;1.20;;
14373;SDS011;7270;49.004;12.066;2023-08-30T05:06:27;1.10;;;1.10;;
14373;SDS011;7270;49.004;12.066;2023-08-30T05:08:53;1.23;;;1.20;;
14373;SDS011;7270;49.004;12.066;2023-08-30T05:11:21;1.10;;;1.10;;
14373;SDS011;7270;49.004;12.066;2023-08-30T05:13:47;1.40;;;1.30;;
14373;SDS011;7270;49.004;12.066;2023-08-30T05:16:13;1.10;;;1.10;;
14373;SDS011;7270;49.004;12.066;2023-08-30T05:18:40;1.10;;;1.10;;
14373;SDS011;7270;49.004;12.066;2023-08-30T05:21:06;1.10;;;1.10;;
14373;SDS011;7270;49.004;12.066;2023-08-30T05:23:33;1.27;;;1.20;;
14373;SDS011;7270;49.004;12.066;2023-08-30T05:25:59;1.10;;;1.10;;
14373;SDS011;7270;49.004;12.066;2023-08-30T05:28:27;1.27;;;1.20;;
14373;SDS011;7270;49.004;12.066;2023-08-30T05:30:53;1.10;;;1.10;;
14373;SDS011;7270;49.004;12.066;2023-08-30T05:33:19;1.40;;;1.30;;
14373;SDS011;7270;49.004;12.066;2023-08-30T05:35:46;1.30;;;1.20;;
14373;SDS011;7270;49.004;12.066;2023-08-30T05:38:12;1.20;;;1.20;;
14373;SDS011;7270;49.004;12.066;2023-08-30T05:40:38;1.10;;;1.10;;
14373;SDS011;7270;49.004;12.066;2023-08-30T05:43:07;1.10;;;1.10;;
14373;SDS011;7270;49.004;12.066;2023-08-30T05:45:35;1.10;;;1.10;;
14373;SDS011;7270;49.004;12.066;2023-08-30T05:48:02;1.10;;;1.10;;
14373;SDS011;7270;49.004;12.066;2023-08-30T05:50:30;1.40;;;1.30;;
14373;SDS011;7270;49.004;12.066;2023-08-30T05:52:56;1.20;;;1.20;;
14373;SDS011;7270;49.004;12.066;2023-08-30T05:55:23;1.37;;;1.27;;
14373;SDS011;7270;49.004;12.066;2023-08-30T05:57:49;1.10;;;1.10;;
14373;SDS011;7270;49.004;12.066;2023-08-30T06:00:16;1.30;;;1.20;;
14373;SDS011;7270;49.004;12.066;2023-08-30T06:02:44;1.10;;;1.10;;
14373;SDS011;7270;49.004;12.066;2023-08-30T06:05:10;1.40;;;1.30;;
14373;SDS011;7270;49.004;12.066;2023-08-30T06:07:37;1.10;;;1.10;;
14373;SDS011;7270;49.004;12.066;2023-08-30T06:10:03;1.17;;;1.17;;
14373;SDS011;7270;49.004;12.066;2023-08-30T06:12:30;1.10;;;1.10;;
14373;SDS011;7270;49.004;12.066;2023-08-30T06:14:56;1.20;;;1.20;;
14373;SDS011;7270;49.004;12.066;2023-08-30T06:17:22;1.20;;;1.20;;
14373;SDS011;7270;49.004;12.066;2023-08-30T06:19:50;1.20;;;1.20;;
14373;SDS011;7270;49.004;12.066;2023-08-30T06:22:16;1.20;;;1.20;;
14373;SDS011;7270;49.004;12.066;2023-08-30T06:24:43;1.40;;;1.30;;
14373;SDS011;7270;49.004;12.066;2023-08-30T06:27:09;1.20;;;1.20;;
14373;SDS011;7270;49.004;12.066;2023-08-30T06:29:35;1.10;;;1.10;;
14373;SDS011;7270;49.004;12.066;2023-08-30T06:32:02;1.10;;;1.10;;
14373;SDS011;7270;49.004;12.066;2023-08-30T06:34:28;1.10;;;1.10;;
14373;SDS011;7270;49.004;12.066;2023-08-30T06:36:56;1.27;;;1.20;;
14373;SDS011;7270;49.004;12.066;2023-08-30T06:39:23;1.10;;;1.10;;
14373;SDS011;7270;49.004;12.066;2023-08-30T06:41:49;1.10;;;1.10;;
14373;SDS011;7270;49.004;12.066;2023-08-30T06:44:15;1.40;;;1.30;;
14373;SDS011;7270;49.004;12.066;2023-08-30T06:46:42;1.10;;;1.10;;
14373;SDS011;7270;49.004;12.066;2023-08-30T06:49:08;1.30;;;1.20;;
14373;SDS011;7270;49.004;12.066;2023-08-30T06:51:34;1.10;;;1.10;;
14373;SDS011;7270;49.004;12.066;2023-08-30T06:54:02;1.20;;;1.20;;
14373;SDS011;7270;49.004;12.066;2023-08-30T06:56:28;1.40;;;1.30;;
14373;SDS011;7270;49.004;12.066;2023-08-30T06:58:55;1.50;;;1.40;;
14373;SDS011;7270;49.004;12.066;2023-08-30T07:01:21;1.50;;;1.40;;
14373;SDS011;7270;49.004;12.066;2023-08-30T07:03:47;1.53;;;1.43;;
14373;SDS011;7270;49.004;12.066;2023-08-30T07:06:14;1.40;;;1.30;;
14373;SDS011;7270;49.004;12.066;2023-08-30T07:08:40;1.30;;;1.20;;
14373;SDS011;7270;49.004;12.066;2023-08-30T07:11:08;1.50;;;1.40;;
14373;SDS011;7270;49.004;12.066;2023-08-30T07:13:35;1.20;;;1.20;;
14373;SDS011;7270;49.004;12.066;2023-08-30T07:16:02;1.40;;;1.30;;
14373;SDS011;7270;49.004;12.066;2023-08-30T07:18:28;1.40;;;1.30;;
14373;SDS011;7270;49.004;12.066;2023-08-30T07:20:55;1.20;;;1.20;;
14373;SDS011;7270;49.004;12.066;2023-08-30T07:23:21;1.50;;;1.40;;
14373;SDS011;7270;49.004;12.066;2023-08-30T07:25:47;1.40;;;1.30;;
14373;SDS011;7270;49.004;12.066;2023-08-30T07:28:15;1.40;;;1.30;;
14373;SDS011;7270;49.004;12.066;2023-08-30T07:30:41;1.50;;;1.40;;
14373;SDS011;7270;49.004;12.066;2023-08-30T07:33:08;8.23;;;7.73;;
14373;SDS011;7270;49.004;12.066;2023-08-30T07:35:34;1.60;;;1.50;;
14373;SDS011;7270;49.004;12.066;2023-08-30T07:38:00;1.53;;;1.43;;
14373;SDS011;7270;49.004;12.066;2023-08-30T07:40:27;2.83;;;2.67;;
14373;SDS011;7270;49.004;12.066;2023-08-30T07:42:54;4.63;;;4.40;;
14373;SDS011;7270;49.004;12.066;2023-08-30T07:45:21;32.40;;;29.80;;
14373;SDS011;7270;49.004;12.066;2023-08-30T07:47:48;9.03;;;8.63;;
14373;SDS011;7270;49.004;12.066;2023-08-30T07:50:14;3.63;;;3.43;;
14373;SDS011;7270;49.004;12.066;2023-08-30T07:52:40;3.47;;;3.27;;
14373;SDS011;7270;49.004;12.066;2023-08-30T07:55:07;4.73;;;4.43;;
14373;SDS011;7270;49.004;12.066;2023-08-30T07:57:34;5.67;;;5.37;;
14373;SDS011;7270;49.004;12.066;2023-08-30T08:00:00;12.57;;;12.00;;
14373;SDS011;7270;49.004;12.066;2023-08-30T08:02:29;233.87;;;139.60;;
14373;SDS011;7270;49.004;12.066;2023-08-30T08:04:55;10.23;;;9.73;;
14373;SDS011;7270;49.004;12.066;2023-08-30T08:07:22;3.93;;;3.73;;
14373;SDS011;7270;49.004;12.066;2023-08-30T08:09:49;3.20;;;3.10;;
14373;SDS011;7270;49.004;12.066;2023-08-30T08:12:15;2.77;;;2.67;;
14373;SDS011;7270;49.004;12.066;2023-08-30T08:14:42;20.63;;;19.67;;
14373;SDS011;7270;49.004;12.066;2023-08-30T08:17:09;268.80;;;237.43;;
14373;SDS011;7270;49.004;12.066;2023-08-30T08:19:36;237.50;;;221.23;;
14373;SDS011;7270;49.004;12.066;2023-08-30T08:22:04;105.73;;;99.83;;
14373;SDS011;7270;49.004;12.066;2023-08-30T08:24:31;170.73;;;161.80;;
14373;SDS011;7270;49.004;12.066;2023-08-30T08:26:57;488.50;;;413.03;;
14373;SDS011;7270;49.004;12.066;2023-08-30T08:29:24;425.10;;;390.60;;
14373;SDS011;7270;49.004;12.066;2023-08-30T08:31:52;427.60;;;381.53;;
14373;SDS011;7270;49.004;12.066;2023-08-30T08:34:18;532.70;;;350.13;;
14373;SDS011;7270;49.004;12.066;2023-08-30T08:36:46;548.27;;;397.17;;
14373;SDS011;7270;49.004;12.066;2023-08-30T08:39:12;579.60;;;490.37;;
14373;SDS011;7270;49.004;12.066;2023-08-30T08:41:40;591.80;;;526.50;;
14373;SDS011;7270;49.004;12.066;2023-08-30T08:44:07;591.57;;;525.77;;
14373;SDS011;7270;49.004;12.066;2023-08-30T08:46:34;548.93;;;414.93;;
14373;SDS011;7270;49.004;12.066;2023-08-30T08:49:01;585.17;;;522.30;;
14373;SDS011;7270;49.004;12.066;2023-08-30T08:51:31;572.40;;;521.43;;
14373;SDS011;7270;49.004;12.066;2023-08-30T08:54:02;478.20;;;442.90;;
14373;SDS011;7270;49.004;12.066;2023-08-30T08:56:29;555.93;;;500.37;;
14373;SDS011;7270;49.004;12.066;2023-08-30T08:58:56;497.40;;;452.83;;
14373;SDS011;7270;49.004;12.066;2023-08-30T09:01:22;287.33;;;269.37;;
14373;SDS011;7270;49.004;12.066;2023-08-30T09:03:49;41.20;;;39.27;;
14373;SDS011;7270;49.004;12.066;2023-08-30T09:06:15;43.40;;;41.33;;
14373;SDS011;7270;49.004;12.066;2023-08-30T09:08:42;5.17;;;4.97;;
14373;SDS011;7270;49.004;12.066;2023-08-30T09:11:09;5.60;;;5.30;;
14373;SDS011;7270;49.004;12.066;2023-08-30T09:13:36;5.40;;;5.20;;
14373;SDS011;7270;49.004;12.066;2023-08-30T09:16:02;4.00;;;3.80;;
14373;SDS011;7270;49.004;12.066;2023-08-30T09:18:29;3.53;;;3.33;;
14373;SDS011;7270;49.004;12.066;2023-08-30T09:21:04;38.90;;;37.07;;
14373;SDS011;7270;49.004;12.066;2023-08-30T09:23:30;137.83;;;128.93;;
14373;SDS011;7270;49.004;12.066;2023-08-30T09:25:58;356.07;;;323.43;;
14373;SDS011;7270;49.004;12.066;2023-08-30T09:28:26;503.30;;;411.23;;
14373;SDS011;7270;49.004;12.066;2023-08-30T09:30:52;256.20;;;240.43;;
14373;SDS011;7270;49.004;12.066;2023-08-30T09:33:20;301.43;;;280.80;;
14373;SDS011;7270;49.004;12.066;2023-08-30T09:35:46;525.70;;;327.53;;
14373;SDS011;7270;49.004;12.066;2023-08-30T09:38:16;15.30;;;14.60;;
14373;SDS011;7270;49.004;12.066;2023-08-30T09:40:42;4.83;;;4.57;;
14373;SDS011;7270;49.004;12.066;2023-08-30T09:43:09;55.50;;;52.83;;
14373;SDS011;7270;49.004;12.066;2023-08-30T09:45:37;57.00;;;54.33;;
14373;SDS011;7270;49.004;12.066;2023-08-30T09:48:04;352.30;;;326.63;;
14373;SDS011;7270;49.004;12.066;2023-08-30T09:50:31;369.10;;;343.40;;
14373;SDS011;7270;49.004;12.066;2023-08-30T09:52:59;374.87;;;348.87;;
14373;SDS011;7270;49.004;12.066;2023-08-30T09:55:27;461.93;;;427.83;;
14373;SDS011;7270;49.004;12.066;2023-08-30T09:57:54;416.10;;;388.07;;
14373;SDS011;7270;49.004;12.066;2023-08-30T10:00:21;313.63;;;296.73;;
14373;SDS011;7270;49.004;12.066;2023-08-30T10:02:49;177.03;;;168.70;;
14373;SDS011;7270;49.004;12.066;2023-08-30T10:05:16;144.00;;;137.37;;
14373;SDS011;7270;49.004;12.066;2023-08-30T10:07:43;279.50;;;264.83;;
14373;SDS011;7270;49.004;12.066;2023-08-30T10:10:09;571.37;;;524.90;;
14373;SDS011;7270;49.004;12.066;2023-08-30T10:12:36;542.80;;;502.00;;
14373;SDS011;7270;49.004;12.066;2023-08-30T10:15:03;436.47;;;409.63;;
14373;SDS011;7270;49.004;12.066;2023-08-30T10:17:31;479.43;;;448.33;;
14373;SDS011;7270;49.004;12.066;2023-08-30T10:20:00;481.10;;;450.20;;
14373;SDS011;7270;49.004;12.066;2023-08-30T10:22:27;447.17;;;419.47;;
14373;SDS011;7270;49.004;12.066;2023-08-30T10:24:55;378.07;;;357.40;;
14373;SDS011;7270;49.004;12.066;2023-08-30T10:27:22;573.20;;;521.47;;
14373;SDS011;7270;49.004;12.066;2023-08-30T10:29:49;596.90;;;532.37;;
14373;SDS011;7270;49.004;12.066;2023-08-30T10:32:18;563.20;;;468.03;;
14373;SDS011;7270;49.004;12.066;2023-08-30T10:34:46;460.60;;;425.90;;
14373;SDS011;7270;49.004;12.066;2023-08-30T10:37:14;196.13;;;186.40;;
14373;SDS011;7270;49.004;12.066;2023-08-30T10:39:42;234.73;;;221.97;;
14373;SDS011;7270;49.004;12.066;2023-08-30T10:42:08;173.50;;;164.33;;
14373;SDS011;7270;49.004;12.066;2023-08-30T10:44:35;116.83;;;111.13;;
14373;SDS011;7270;49.004;12.066;2023-08-30T10:47:17;64.77;;;61.67;;
14373;SDS011;7270;49.004;12.066;2023-08-30T10:49:44;52.13;;;49.57;;
14373;SDS011;7270;49.004;12.066;2023-08-30T10:52:11;27.27;;;26.00;;
14373;SDS011;7270;49.004;12.066;2023-08-30T10:54:39;108.47;;;103.03;;
14373;SDS011;7270;49.004;12.066;2023-08-30T10:57:12;194.27;;;182.83;;
14373;SDS011;7270;49.004;12.066;2023-08-30T10:59:38;233.03;;;217.80;;
14373;SDS011;7270;49.004;12.066;2023-08-30T11:02:05;9.23;;;8.83;;
14373;SDS011;7270;49.004;12.066;2023-08-30T11:04:32;4.90;;;4.70;;
14373;SDS011;7270;49.004;12.066;2023-08-30T11:06:58;4.90;;;4.70;;
14373;SDS011;7270;49.004;12.066;2023-08-30T11:09:24;268.67;;;245.90;;
14373;SDS011;7270;49.004;12.066;2023-08-30T11:11:53;273.33;;;253.97;;
14373;SDS011;7270;49.004;12.066;2023-08-30T11:14:19;178.30;;;168.50;;
14373;SDS011;7270;49.004;12.066;2023-08-30T11:16:46;29.07;;;27.73;;
14373;SDS011;7270;49.004;12.066;2023-08-30T11:19:12;17.67;;;16.83;;
14373;SDS011;7270;49.004;12.066;2023-08-30T11:21:39;4.70;;;4.50;;
14373;SDS011;7270;49.004;12.066;2023-08-30T11:24:06;3.60;;;3.40;;
14373;SDS011;7270;49.004;12.066;2023-08-30T11:26:33;15.00;;;14.30;;
14373;SDS011;7270;49.004;12.066;2023-08-30T11:29:04;7.97;;;7.57;;
14373;SDS011;7270;49.004;12.066;2023-08-30T11:31:31;12.57;;;11.97;;
14373;SDS011;7270;49.004;12.066;2023-08-30T11:33:58;26.10;;;24.90;;
14373;SDS011;7270;49.004;12.066;2023-08-30T11:36:26;12.83;;;12.23;;
14373;SDS011;7270;49.004;12.066;2023-08-30T11:38:53;27.50;;;26.20;;
14373;SDS011;7270;49.004;12.066;2023-08-30T11:41:19;240.97;;;224.17;;
14373;SDS011;7270;49.004;12.066;2023-08-30T11:43:46;503.87;;;253.17;;
14373;SDS011;7270;49.004;12.066;2023-08-30T11:46:14;29.97;;;28.47;;
14373;SDS011;7270;49.004;12.066;2023-08-30T11:48:40;35.60;;;33.87;;
14373;SDS011;7270;49.004;12.066;2023-08-30T11:51:07;26.13;;;24.90;;
14373;SDS011;7270;49.004;12.066;2023-08-30T11:53:34;23.43;;;22.30;;
14373;SDS011;7270;49.004;12.066;2023-08-30T11:56:02;13.27;;;12.67;;
14373;SDS011;7270;49.004;12.066;2023-08-30T11:58:31;25.23;;;24.03;;
14373;SDS011;7270;49.004;12.066;2023-08-30T12:00:57;29.20;;;27.80;;
14373;SDS011;7270;49.004;12.066;2023-08-30T12:03:27;200.83;;;111.30;;
14373;SDS011;7270;49.004;12.066;2023-08-30T12:05:53;7.73;;;7.30;;
14373;SDS011;7270;49.004;12.066;2023-08-30T12:08:20;7.10;;;6.80;;
14373;SDS011;7270;49.004;12.066;2023-08-30T12:10:46;6.50;;;6.20;;
14373;SDS011;7270;49.004;12.066;2023-08-30T12:13:20;4.90;;;4.70;;
14373;SDS011;7270;49.004;12.066;2023-08-30T12:15:46;5.17;;;4.97;;
14373;SDS011;7270;49.004;12.066;2023-08-30T12:18:12;4.00;;;3.80;;
14373;SDS011;7270;49.004;12.066;2023-08-30T12:20:40;3.40;;;3.20;;
14373;SDS011;7270;49.004;12.066;2023-08-30T12:23:19;3.50;;;3.30;;
14373;SDS011;7270;49.004;12.066;2023-08-30T12:25:55;2.73;;;2.63;;
14373;SDS011;7270;49.004;12.066;2023-08-30T12:28:22;4.17;;;3.97;;
14373;SDS011;7270;49.004;12.066;2023-08-30T12:30:48;3.67;;;3.47;;
14373;SDS011;7270;49.004;12.066;2023-08-30T12:33:15;2.67;;;2.57;;
14373;SDS011;7270;49.004;12.066;2023-08-30T12:35:43;2.30;;;2.20;;
14373;SDS011;7270;49.004;12.066;2023-08-30T12:38:10;2.07;;;1.97;;
14373;SDS011;7270;49.004;12.066;2023-08-30T12:40:36;2.37;;;2.27;;
14373;SDS011;7270;49.004;12.066;2023-08-30T12:43:03;2.30;;;2.20;;
14373;SDS011;7270;49.004;12.066;2023-08-30T12:45:29;2.13;;;2.03;;
14373;SDS011;7270;49.004;12.066;2023-08-30T12:47:56;2.23;;;2.13;;
14373;SDS011;7270;49.004;12.066;2023-08-30T12:50:23;2.37;;;2.27;;
14373;SDS011;7270;49.004;12.066;2023-08-30T12:52:51;1.77;;;1.67;;
14373;SDS011;7270;49.004;12.066;2023-08-30T12:55:17;1.80;;;1.70;;
14373;SDS011;7270;49.004;12.066;2023-08-30T12:57:44;2.57;;;2.37;;
14373;SDS011;7270;49.004;12.066;2023-08-30T13:00:12;2.07;;;1.97;;
14373;SDS011;7270;49.004;12.066;2023-08-30T13:02:38;2.10;;;2.00;;
14373;SDS011;7270;49.004;12.066;2023-08-30T13:05:04;2.00;;;1.90;;
14373;SDS011;7270;49.004;12.066;2023-08-30T13:07:31;2.10;;;2.00;;
14373;SDS011;7270;49.004;12.066;2023-08-30T13:09:58;2.10;;;2.00;;
14373;SDS011;7270;49.004;12.066;2023-08-30T13:12:25;2.07;;;1.97;;
14373;SDS011;7270;49.004;12.066;2023-08-30T13:14:51;2.40;;;2.20;;
14373;SDS011;7270;49.004;12.066;2023-08-30T13:17:18;2.40;;;2.30;;
14373;SDS011;7270;49.004;12.066;2023-08-30T13:19:44;2.50;;;2.40;;
14373;SDS011;7270;49.004;12.066;2023-08-30T13:22:10;2.63;;;2.53;;
14373;SDS011;7270;49.004;12.066;2023-08-30T13:24:37;2.77;;;2.67;;
14373;SDS011;7270;49.004;12.066;2023-08-30T13:27:04;2.70;;;2.60;;
14373;SDS011;7270;49.004;12.066;2023-08-30T13:29:31;3.27;;;3.17;;
14373;SDS011;7270;49.004;12.066;2023-08-30T13:31:57;3.83;;;3.63;;
14373;SDS011;7270;49.004;12.066;2023-08-30T13:34:23;3.60;;;3.40;;
14373;SDS011;7270;49.004;12.066;2023-08-30T13:36:50;3.60;;;3.40;;
14373;SDS011;7270;49.004;12.066;2023-08-30T13:39:16;4.03;;;3.83;;
14373;SDS011;7270;49.004;12.066;2023-08-30T13:41:44;3.90;;;3.70;;
14373;SDS011;7270;49.004;12.066;2023-08-30T13:44:12;4.27;;;4.07;;
14373;SDS011;7270;49.004;12.066;2023-08-30T13:46:38;4.50;;;4.30;;
14373;SDS011;7270;49.004;12.066;2023-08-30T13:49:08;4.10;;;3.90;;
14373;SDS011;7270;49.004;12.066;2023-08-30T13:51:34;3.80;;;3.60;;
14373;SDS011;7270;49.004;12.066;2023-08-30T13:54:01;3.87;;;3.67;;
14373;SDS011;7270;49.004;12.066;2023-08-30T13:56:27;4.10;;;3.90;;
14373;SDS011;7270;49.004;12.066;2023-08-30T13:58:55;4.43;;;4.13;;
14373;SDS011;7270;49.004;12.066;2023-08-30T14:01:23;4.17;;;3.87;;
14373;SDS011;7270;49.004;12.066;2023-08-30T14:03:49;3.60;;;3.40;;
14373;SDS011;7270;49.004;12.066;2023-08-30T14:06:15;3.30;;;3.10;;
14373;SDS011;7270;49.004;12.066;2023-08-30T14:08:42;4.00;;;3.80;;
14373;SDS011;7270;49.004;12.066;2023-08-30T14:11:09;3.67;;;3.40;;
14373;SDS011;7270;49.004;12.066;2023-08-30T14:13:35;3.07;;;2.97;;
14373;SDS011;7270;49.004;12.066;2023-08-30T14:16:01;3.03;;;2.93;;
14373;SDS011;7270;49.004;12.066;2023-08-30T14:18:30;3.60;;;3.40;;
14373;SDS011;7270;49.004;12.066;2023-08-30T14:20:56;3.53;;;3.33;;
14373;SDS011;7270;49.004;12.066;2023-08-30T14:23:23;2.87;;;2.77;;
14373;SDS011;7270;49.004;12.066;2023-08-30T14:25:54;2.50;;;2.40;;
14373;SDS011;7270;49.004;12.066;2023-08-30T14:28:21;2.60;;;2.50;;
14373;SDS011;7270;49.004;12.066;2023-08-30T14:30:47;2.77;;;2.67;;
14373;SDS011;7270;49.004;12.066;2023-08-30T14:33:14;2.70;;;2.60;;
14373;SDS011;7270;49.004;12.066;2023-08-30T14:35:42;2.70;;;2.50;;